createdAt,value
2022-08-17T00:00:42.709Z,20.37
2022-08-17T00:01:14.598Z,20.39
2022-08-17T00:02:24.121Z,20.25
2022-08-17T00:03:14.528Z,20.37
2022-08-17T00:04:14.324Z,20.37
2022-08-17T00:05:14.249Z,20.25
2022-08-17T00:06:14.171Z,20.29
2022-08-17T00:07:14.105Z,20.26
2022-08-17T00:08:14.026Z,20.18
2022-08-17T00:09:18.697Z,20.24
2022-08-17T00:10:13.873Z,20.24
2022-08-17T00:11:13.796Z,20.25
2022-08-17T00:12:41.203Z,20.14
2022-08-17T00:13:13.648Z,20.11
2022-08-17T00:14:13.577Z,20.14
2022-08-17T00:15:13.531Z,20.13
2022-08-17T00:16:13.423Z,20.09
2022-08-17T00:17:13.359Z,20.10
2022-08-17T00:19:02.200Z,20.07
2022-08-17T00:19:13.206Z,20.06
2022-08-17T00:20:13.129Z,20.03
2022-08-17T00:21:13.048Z,20.04
2022-08-17T00:22:33.912Z,20.03
2022-08-17T00:23:12.899Z,20.06
2022-08-17T00:24:12.825Z,20.04
2022-08-17T00:25:12.761Z,20.07
2022-08-17T00:26:14.318Z,20.04
2022-08-17T00:27:12.602Z,20.02
2022-08-17T00:28:12.531Z,20.06
2022-08-17T00:29:19.615Z,20.07
2022-08-17T00:30:12.376Z,20.06
2022-08-17T00:31:12.298Z,20.02
2022-08-17T00:33:12.120Z,20.04
2022-08-17T00:33:16.861Z,19.99
2022-08-17T00:34:12.079Z,19.99
2022-08-17T00:35:12.004Z,19.95
2022-08-17T00:36:11.931Z,19.91
2022-08-17T00:37:11.861Z,19.85
2022-08-17T00:38:11.789Z,19.85
2022-08-17T00:39:11.709Z,19.77
2022-08-17T00:40:11.718Z,19.71
2022-08-17T00:41:11.553Z,19.76
2022-08-17T00:42:11.488Z,19.74
2022-08-17T00:43:11.410Z,19.67
2022-08-17T00:44:11.329Z,19.73
2022-08-17T00:45:11.254Z,19.63
2022-08-17T00:46:11.173Z,19.59
2022-08-17T00:47:11.102Z,19.56
2022-08-17T00:48:23.739Z,19.56
2022-08-17T00:49:10.949Z,19.54
2022-08-17T00:50:10.876Z,19.55
2022-08-17T00:51:10.797Z,19.56
2022-08-17T00:52:12.045Z,19.51
2022-08-17T00:53:10.654Z,19.58
2022-08-17T00:54:10.586Z,19.51
2022-08-17T00:55:10.498Z,19.56
2022-08-17T00:56:10.427Z,19.51
2022-08-17T00:57:10.350Z,19.49
2022-08-17T00:58:10.277Z,19.45
2022-08-17T00:59:10.204Z,19.55
2022-08-17T01:00:10.129Z,19.54
2022-08-17T01:01:10.118Z,19.54
2022-08-17T01:02:09.972Z,19.55
2022-08-17T01:03:09.901Z,19.47
2022-08-17T01:04:09.826Z,19.41
2022-08-17T01:05:09.754Z,19.44
2022-08-17T01:06:09.676Z,19.40
2022-08-17T01:07:09.604Z,19.33
2022-08-17T01:08:09.523Z,19.34
2022-08-17T01:09:09.444Z,19.31
2022-08-17T01:11:00.380Z,19.44
2022-08-17T01:11:09.299Z,19.44
2022-08-17T01:12:09.226Z,19.36
2022-08-17T01:13:09.149Z,19.41
2022-08-17T01:14:09.075Z,19.36
2022-08-17T01:15:08.995Z,19.34
2022-08-17T01:16:08.922Z,19.34
2022-08-17T01:17:08.848Z,19.36
2022-08-17T01:18:08.778Z,19.37
2022-08-17T01:19:08.697Z,19.39
2022-08-17T01:20:08.617Z,19.44
2022-08-17T01:21:08.545Z,19.45
2022-08-17T01:22:08.470Z,19.34
2022-08-17T01:23:08.408Z,19.36
2022-08-17T01:24:08.322Z,19.27
2022-08-17T01:25:08.246Z,19.36
2022-08-17T01:26:08.170Z,19.31
2022-08-17T01:27:10.168Z,19.30
2022-08-17T01:28:08.017Z,19.22
2022-08-17T01:29:07.946Z,19.27
2022-08-17T01:30:57.270Z,19.26
2022-08-17T01:31:07.792Z,19.29
2022-08-17T01:32:07.714Z,19.24
2022-08-17T01:33:07.639Z,19.30
2022-08-17T01:34:07.566Z,19.30
2022-08-17T01:35:07.494Z,19.19
2022-08-17T01:36:07.438Z,19.16
2022-08-17T01:37:07.334Z,19.21
2022-08-17T01:38:07.268Z,19.21
2022-08-17T01:39:07.191Z,19.24
2022-08-17T01:40:07.237Z,19.19
2022-08-17T01:41:07.035Z,19.16
2022-08-17T01:42:06.968Z,19.19
2022-08-17T01:43:06.886Z,19.16
2022-08-17T01:44:06.809Z,19.08
2022-08-17T01:45:06.738Z,19.14
2022-08-17T01:46:06.663Z,19.11
2022-08-17T01:47:06.586Z,19.15
2022-08-17T01:48:06.517Z,19.24
2022-08-17T01:49:06.432Z,19.08
2022-08-17T01:50:06.356Z,19.08
2022-08-17T01:51:06.283Z,19.16
2022-08-17T01:52:06.210Z,19.11
2022-08-17T01:53:06.130Z,18.96
2022-08-17T01:54:06.058Z,19.11
2022-08-17T01:55:05.983Z,19.11
2022-08-17T01:56:05.906Z,19.11
2022-08-17T01:57:05.832Z,19.11
2022-08-17T01:58:05.757Z,19.02
2022-08-17T01:59:05.677Z,19.04
2022-08-17T02:00:05.602Z,18.92
2022-08-17T02:01:05.559Z,18.90
2022-08-17T02:02:05.448Z,18.95
2022-08-17T02:03:05.378Z,18.93
2022-08-17T02:04:05.307Z,18.92
2022-08-17T02:05:05.230Z,18.80
2022-08-17T02:06:05.370Z,18.77
2022-08-17T02:07:05.078Z,18.93
2022-08-17T02:08:04.998Z,18.80
2022-08-17T02:09:04.920Z,18.81
2022-08-17T02:10:04.850Z,18.74
2022-08-17T02:11:04.774Z,18.80
2022-08-17T02:12:37.383Z,18.80
2022-08-17T02:13:04.620Z,18.77
2022-08-17T02:14:04.544Z,18.80
2022-08-17T02:15:04.466Z,18.75
2022-08-17T02:16:04.393Z,18.84
2022-08-17T02:17:04.323Z,18.78
2022-08-17T02:18:04.240Z,18.66
2022-08-17T02:19:04.170Z,18.66
2022-08-17T02:20:04.093Z,18.63
2022-08-17T02:21:04.022Z,18.60
2022-08-17T02:22:03.941Z,18.66
2022-08-17T02:23:03.859Z,18.58
2022-08-17T02:24:03.796Z,18.53
2022-08-17T02:25:03.715Z,18.53
2022-08-17T02:26:03.633Z,18.52
2022-08-17T02:27:03.557Z,18.47
2022-08-17T02:28:03.490Z,18.50
2022-08-17T02:29:03.414Z,18.45
2022-08-17T02:30:03.331Z,18.41
2022-08-17T02:31:03.402Z,18.40
2022-08-17T02:32:03.177Z,18.37
2022-08-17T02:33:04.231Z,18.34
2022-08-17T02:34:04.709Z,18.40
2022-08-17T02:35:02.958Z,18.31
2022-08-17T02:36:02.881Z,18.37
2022-08-17T02:37:02.809Z,18.34
2022-08-17T02:38:02.731Z,18.34
2022-08-17T02:39:02.648Z,18.31
2022-08-17T02:40:02.648Z,18.44
2022-08-17T02:41:02.507Z,18.41
2022-08-17T02:42:02.423Z,18.31
2022-08-17T02:43:02.354Z,18.31
2022-08-17T02:44:02.271Z,18.25
2022-08-17T02:45:02.197Z,18.31
2022-08-17T02:46:02.122Z,18.23
2022-08-17T02:47:02.045Z,18.20
2022-08-17T02:48:01.968Z,18.28
2022-08-17T02:49:01.891Z,18.18
2022-08-17T02:50:01.814Z,18.16
2022-08-17T02:51:01.736Z,18.15
2022-08-17T02:52:01.662Z,18.16
2022-08-17T02:53:04.557Z,18.18
2022-08-17T02:54:39.415Z,18.10
2022-08-17T02:55:01.455Z,18.16
2022-08-17T02:56:01.357Z,18.10
2022-08-17T02:57:01.281Z,18.08
2022-08-17T02:58:01.207Z,18.19
2022-08-17T02:59:01.133Z,18.13
2022-08-17T03:00:01.057Z,18.16
2022-08-17T03:01:00.987Z,18.10
2022-08-17T03:02:00.968Z,18.08
2022-08-17T03:03:00.829Z,18.10
2022-08-17T03:04:00.750Z,18.13
2022-08-17T03:05:00.676Z,18.16
2022-08-17T03:06:00.600Z,18.15
2022-08-17T03:07:00.527Z,18.19
2022-08-17T03:08:00.449Z,18.20
2022-08-17T03:09:00.367Z,18.25
2022-08-17T03:10:00.301Z,18.10
2022-08-17T03:11:00.222Z,18.11
2022-08-17T03:12:00.145Z,18.10
2022-08-17T03:13:00.070Z,18.16
2022-08-17T03:13:59.990Z,18.10
2022-08-17T03:14:59.914Z,18.20
2022-08-17T03:15:59.854Z,18.10
2022-08-17T03:16:59.762Z,18.13
2022-08-17T03:17:59.689Z,18.18
2022-08-17T03:18:59.613Z,18.18
2022-08-17T03:19:59.539Z,18.08
2022-08-17T03:20:59.462Z,18.10
2022-08-17T03:21:59.382Z,18.08
2022-08-17T03:23:02.924Z,18.10
2022-08-17T03:23:59.236Z,18.15
2022-08-17T03:24:59.152Z,18.13
2022-08-17T03:25:59.081Z,18.08
2022-08-17T03:26:58.998Z,18.10
2022-08-17T03:27:58.924Z,18.15
2022-08-17T03:28:58.852Z,18.16
2022-08-17T03:29:58.773Z,18.10
2022-08-17T03:30:58.702Z,18.19
2022-08-17T03:31:58.619Z,18.08
2022-08-17T03:32:58.546Z,18.13
2022-08-17T03:33:58.472Z,18.20
2022-08-17T03:34:58.390Z,18.10
2022-08-17T03:35:58.320Z,18.15
2022-08-17T03:36:58.242Z,18.11
2022-08-17T03:38:00.718Z,18.18
2022-08-17T03:38:58.089Z,18.16
2022-08-17T03:39:58.051Z,18.13
2022-08-17T03:40:59.884Z,18.11
2022-08-17T03:41:57.862Z,18.10
2022-08-17T03:42:57.789Z,18.18
2022-08-17T03:43:57.710Z,18.00
2022-08-17T03:44:57.779Z,18.01
2022-08-17T03:45:57.561Z,18.07
2022-08-17T03:46:57.475Z,18.07
2022-08-17T03:47:57.405Z,18.08
2022-08-17T03:48:57.331Z,18.07
2022-08-17T03:49:57.258Z,18.08
2022-08-17T03:50:57.175Z,18.07
2022-08-17T03:51:57.096Z,18.00
2022-08-17T03:52:57.285Z,18.08
2022-08-17T03:53:56.944Z,18.03
2022-08-17T03:54:56.874Z,18.03
2022-08-17T03:55:56.793Z,18.03
2022-08-17T03:56:56.718Z,17.98
2022-08-17T03:57:56.640Z,18.03
2022-08-17T03:58:56.570Z,18.00
2022-08-17T03:59:56.491Z,18.00
2022-08-17T04:00:56.414Z,17.95
2022-08-17T04:01:56.350Z,18.08
2022-08-17T04:02:56.265Z,18.03
2022-08-17T04:03:56.187Z,18.05
2022-08-17T04:04:56.118Z,18.01
2022-08-17T04:05:56.034Z,18.01
2022-08-17T04:06:55.953Z,17.92
2022-08-17T04:07:55.882Z,17.90
2022-08-17T04:08:55.806Z,17.92
2022-08-17T04:09:55.730Z,17.90
2022-08-17T04:10:55.654Z,17.87
2022-08-17T04:11:55.572Z,17.92
2022-08-17T04:12:55.497Z,17.90
2022-08-17T04:13:55.419Z,17.95
2022-08-17T04:14:55.452Z,17.92
2022-08-17T04:15:55.266Z,17.94
2022-08-17T04:16:55.197Z,17.87
2022-08-17T04:17:55.118Z,17.90
2022-08-17T04:18:55.037Z,17.90
2022-08-17T04:19:54.974Z,17.97
2022-08-17T04:20:54.891Z,17.92
2022-08-17T04:21:54.813Z,18.01
2022-08-17T04:22:54.737Z,17.95
2022-08-17T04:23:54.662Z,18.01
2022-08-17T04:24:54.589Z,17.95
2022-08-17T04:25:54.505Z,17.98
2022-08-17T04:26:54.759Z,18.04
2022-08-17T04:27:54.355Z,17.95
2022-08-17T04:28:54.279Z,17.95
2022-08-17T04:29:55.783Z,17.94
2022-08-17T04:30:54.130Z,17.89
2022-08-17T04:31:54.047Z,17.87
2022-08-17T04:33:04.504Z,17.89
2022-08-17T04:33:53.898Z,17.90
2022-08-17T04:34:53.821Z,17.97
2022-08-17T04:35:53.748Z,17.94
2022-08-17T04:36:53.669Z,17.90
2022-08-17T04:37:53.598Z,18.01
2022-08-17T04:38:53.521Z,17.97
2022-08-17T04:39:53.522Z,17.92
2022-08-17T04:40:53.363Z,17.97
2022-08-17T04:41:53.286Z,17.95
2022-08-17T04:42:53.212Z,17.97
2022-08-17T04:43:53.135Z,18.01
2022-08-17T04:44:53.054Z,18.01
2022-08-17T04:45:56.330Z,17.95
2022-08-17T04:46:52.907Z,18.00
2022-08-17T04:47:52.831Z,17.98
2022-08-17T04:48:52.753Z,17.95
2022-08-17T04:49:52.675Z,17.97
2022-08-17T04:50:52.598Z,18.00
2022-08-17T04:51:54.710Z,17.97
2022-08-17T04:52:52.454Z,18.00
2022-08-17T04:53:54.193Z,17.97
2022-08-17T04:54:52.297Z,17.94
2022-08-17T04:55:52.220Z,17.90
2022-08-17T04:56:52.148Z,18.03
2022-08-17T04:57:52.059Z,18.05
2022-08-17T04:58:51.991Z,18.04
2022-08-17T04:59:51.913Z,17.98
2022-08-17T05:00:51.861Z,18.05
2022-08-17T05:01:51.758Z,18.05
2022-08-17T05:02:52.015Z,18.05
2022-08-17T05:03:51.611Z,18.05
2022-08-17T05:04:51.534Z,18.10
2022-08-17T05:05:51.450Z,18.13
2022-08-17T05:06:51.381Z,18.11
2022-08-17T05:07:51.302Z,18.22
2022-08-17T05:08:51.224Z,18.16
2022-08-17T05:09:51.151Z,18.13
2022-08-17T05:10:51.076Z,18.16
2022-08-17T05:11:51.001Z,18.13
2022-08-17T05:12:51.041Z,18.13
2022-08-17T05:13:50.845Z,18.10
2022-08-17T05:14:50.769Z,18.15
2022-08-17T05:15:50.696Z,18.18
2022-08-17T05:16:50.614Z,18.13
2022-08-17T05:17:50.540Z,18.18
2022-08-17T05:18:50.464Z,18.13
2022-08-17T05:19:52.124Z,18.26
2022-08-17T05:20:50.310Z,18.26
2022-08-17T05:21:50.239Z,18.31
2022-08-17T05:22:50.397Z,18.29
2022-08-17T05:23:50.415Z,18.37
2022-08-17T05:24:53.953Z,18.43
2022-08-17T05:25:50.490Z,18.40
2022-08-17T05:26:49.852Z,18.44
2022-08-17T05:27:49.773Z,18.44
2022-08-17T05:28:49.705Z,18.52
2022-08-17T05:29:49.632Z,18.58
2022-08-17T05:30:49.557Z,18.62
2022-08-17T05:31:49.471Z,18.71
2022-08-17T05:32:49.493Z,18.70
2022-08-17T05:33:50.171Z,18.66
2022-08-17T05:34:49.242Z,18.66
2022-08-17T05:35:49.168Z,18.81
2022-08-17T05:36:49.090Z,18.80
2022-08-17T05:37:49.013Z,18.78
2022-08-17T05:38:48.939Z,18.74
2022-08-17T05:39:48.891Z,18.78
2022-08-17T05:40:48.791Z,18.88
2022-08-17T05:41:48.758Z,18.84
2022-08-17T05:42:48.633Z,18.90
2022-08-17T05:43:51.839Z,18.95
2022-08-17T05:44:48.486Z,18.90
2022-08-17T05:45:55.147Z,18.90
2022-08-17T05:46:48.331Z,18.92
2022-08-17T05:47:48.260Z,18.96
2022-08-17T05:48:48.185Z,18.99
2022-08-17T05:49:49.121Z,18.96
2022-08-17T05:50:55.238Z,19.04
2022-08-17T05:52:52.126Z,19.07
2022-08-17T05:53:51.787Z,19.00
2022-08-17T05:55:55.617Z,19.16
2022-08-17T05:56:55.537Z,19.16
2022-08-17T05:58:59.388Z,19.30
2022-08-17T05:59:59.293Z,19.30
2022-08-17T06:01:52.139Z,19.29
2022-08-17T06:02:52.234Z,19.37
2022-08-17T06:04:55.852Z,19.45
2022-08-17T06:05:55.764Z,19.39
2022-08-17T06:07:59.611Z,19.51
2022-08-17T06:08:59.529Z,19.48
2022-08-17T06:11:03.858Z,19.59
2022-08-17T06:12:03.774Z,19.55
2022-08-17T06:14:07.654Z,19.77
2022-08-17T06:15:07.562Z,19.79
2022-08-17T06:17:11.424Z,19.84
2022-08-17T06:18:14.774Z,19.84
2022-08-17T06:20:15.176Z,19.88
2022-08-17T06:21:15.097Z,19.96
2022-08-17T06:23:18.984Z,20.07
2022-08-17T06:24:18.883Z,20.13
2022-08-17T06:26:25.921Z,20.22
2022-08-17T06:27:22.658Z,20.22
2022-08-17T06:29:26.507Z,20.24
2022-08-17T06:30:26.428Z,20.37
2022-08-17T06:32:19.230Z,20.41
2022-08-17T06:33:19.132Z,20.51
2022-08-17T06:35:22.973Z,20.58
2022-08-17T06:36:22.888Z,20.62
2022-08-17T06:38:38.564Z,20.66
2022-08-17T06:39:26.737Z,20.72
2022-08-17T06:41:30.983Z,20.74
2022-08-17T06:43:05.150Z,20.77
2022-08-17T06:44:43.336Z,20.78
2022-08-17T06:45:34.676Z,20.87
2022-08-17T06:47:38.516Z,20.96
2022-08-17T06:48:38.438Z,20.97
2022-08-17T06:50:42.308Z,21.11
2022-08-17T06:51:42.218Z,21.17
2022-08-17T06:53:46.085Z,21.20
2022-08-17T06:54:45.989Z,21.21
2022-08-17T06:55:45.915Z,21.25
2022-08-17T06:56:53.394Z,21.36
2022-08-17T06:57:45.760Z,21.30
2022-08-17T06:58:45.689Z,21.36
2022-08-17T06:59:55.843Z,21.46
2022-08-17T07:00:45.594Z,21.45
2022-08-17T07:01:45.465Z,21.51
2022-08-17T07:02:53.181Z,21.54
2022-08-17T07:03:45.309Z,21.64
2022-08-17T07:04:45.241Z,21.66
2022-08-17T07:05:45.168Z,21.66
2022-08-17T07:06:45.090Z,21.69
2022-08-17T07:07:45.015Z,21.76
2022-08-17T07:08:44.939Z,21.75
2022-08-17T07:09:44.864Z,21.82
2022-08-17T07:10:44.788Z,21.82
2022-08-17T07:11:44.718Z,21.83
2022-08-17T07:12:44.641Z,21.95
2022-08-17T07:13:44.570Z,21.95
2022-08-17T07:14:44.492Z,22.04
2022-08-17T07:15:44.419Z,22.00
2022-08-17T07:16:44.345Z,22.07
2022-08-17T07:17:47.325Z,22.07
2022-08-17T07:18:44.190Z,22.17
2022-08-17T07:19:44.124Z,22.25
2022-08-17T07:20:44.041Z,22.32
2022-08-17T07:21:43.975Z,22.32
2022-08-17T07:22:53.558Z,22.35
2022-08-17T07:23:43.821Z,22.36
2022-08-17T07:24:43.747Z,22.43
2022-08-17T07:25:43.674Z,22.47
2022-08-17T07:26:43.600Z,22.45
2022-08-17T07:27:43.571Z,22.59
2022-08-17T07:28:43.450Z,22.68
2022-08-17T07:29:43.375Z,22.60
2022-08-17T07:30:47.120Z,22.66
2022-08-17T07:31:43.223Z,22.70
2022-08-17T07:32:43.157Z,22.81
2022-08-17T07:33:43.075Z,22.83
2022-08-17T07:34:43.003Z,22.80
2022-08-17T07:35:43.696Z,22.84
2022-08-17T07:36:42.855Z,22.88
2022-08-17T07:37:42.811Z,22.90
2022-08-17T07:38:42.707Z,22.90
2022-08-17T07:39:59.664Z,22.98
2022-08-17T07:40:42.644Z,23.10
2022-08-17T07:41:53.392Z,23.03
2022-08-17T07:42:46.559Z,23.03
2022-08-17T07:43:42.342Z,23.13
2022-08-17T07:44:42.265Z,23.21
2022-08-17T07:45:42.190Z,23.20
2022-08-17T07:46:42.121Z,23.20
2022-08-17T07:47:42.041Z,23.32
2022-08-17T07:48:41.966Z,23.41
2022-08-17T07:49:41.897Z,23.34
2022-08-17T07:50:41.818Z,23.39
2022-08-17T07:51:41.752Z,23.41
2022-08-17T07:52:51.236Z,23.51
2022-08-17T07:53:41.601Z,23.48
2022-08-17T07:54:41.522Z,23.43
2022-08-17T07:55:41.452Z,23.56
2022-08-17T07:56:41.379Z,23.54
2022-08-17T07:57:41.306Z,23.59
2022-08-17T07:58:41.233Z,23.61
2022-08-17T07:59:43.301Z,23.69
2022-08-17T08:00:41.083Z,23.73
2022-08-17T08:01:41.992Z,23.76
2022-08-17T08:02:40.935Z,23.84
2022-08-17T08:03:40.862Z,23.88
2022-08-17T08:04:59.640Z,23.91
2022-08-17T08:05:49.927Z,23.83
2022-08-17T08:06:40.640Z,23.99
2022-08-17T08:07:40.565Z,24.02
2022-08-17T08:08:40.493Z,24.13
2022-08-17T08:09:40.422Z,24.13
2022-08-17T08:10:45.341Z,24.26
2022-08-17T08:11:44.194Z,24.26
2022-08-17T08:12:40.201Z,24.45
2022-08-17T08:13:40.129Z,24.40
2022-08-17T08:14:40.051Z,24.48
2022-08-17T08:15:39.988Z,24.60
2022-08-17T08:16:39.909Z,24.60
2022-08-17T08:17:39.835Z,24.65
2022-08-17T08:18:55.338Z,24.54
2022-08-17T08:19:39.688Z,24.57
2022-08-17T08:20:53.067Z,24.63
2022-08-17T08:21:39.548Z,24.66
2022-08-17T08:22:39.466Z,24.73
2022-08-17T08:23:39.397Z,24.68
2022-08-17T08:24:39.321Z,24.76
2022-08-17T08:25:39.249Z,24.76
2022-08-17T08:26:39.175Z,24.80
2022-08-17T08:27:39.100Z,24.85
2022-08-17T08:28:39.028Z,24.91
2022-08-17T08:29:38.953Z,24.98
2022-08-17T08:30:38.885Z,24.92
2022-08-17T08:31:42.186Z,24.96
2022-08-17T08:32:38.738Z,25.04
2022-08-17T08:33:38.660Z,25.04
2022-08-17T08:34:45.032Z,25.07
2022-08-17T08:35:38.516Z,25.10
2022-08-17T08:37:12.922Z,25.18
2022-08-17T08:37:42.652Z,25.21
2022-08-17T08:38:38.298Z,25.17
2022-08-17T08:39:38.247Z,25.23
2022-08-17T08:40:38.152Z,25.32
2022-08-17T08:41:38.085Z,25.38
2022-08-17T08:42:38.004Z,25.40
2022-08-17T08:43:37.937Z,25.38
2022-08-17T08:45:01.096Z,25.53
2022-08-17T08:45:37.787Z,25.48
2022-08-17T08:46:37.715Z,25.50
2022-08-17T08:47:37.649Z,25.59
2022-08-17T08:48:53.808Z,25.62
2022-08-17T08:50:02.603Z,25.72
2022-08-17T08:50:38.613Z,25.66
2022-08-17T08:51:37.354Z,25.77
2022-08-17T08:52:37.280Z,25.68
2022-08-17T08:53:37.208Z,25.83
2022-08-17T08:54:37.139Z,25.80
2022-08-17T08:55:37.066Z,25.80
2022-08-17T08:56:36.995Z,25.85
2022-08-17T08:57:36.918Z,25.90
2022-08-17T08:58:41.692Z,25.96
2022-08-17T08:59:42.139Z,25.96
2022-08-17T09:00:36.700Z,26.05
2022-08-17T09:01:36.651Z,26.02
2022-08-17T09:02:36.554Z,26.18
2022-08-17T09:03:51.872Z,26.19
2022-08-17T09:04:55.926Z,26.21
2022-08-17T09:05:36.339Z,26.25
2022-08-17T09:06:39.741Z,26.28
2022-08-17T09:07:36.194Z,26.26
2022-08-17T09:08:36.121Z,26.36
2022-08-17T09:09:36.047Z,26.43
2022-08-17T09:10:35.977Z,26.44
2022-08-17T09:11:35.905Z,26.44
2022-08-17T09:12:35.829Z,26.48
2022-08-17T09:13:35.765Z,26.53
2022-08-17T09:14:45.382Z,26.58
2022-08-17T09:15:35.612Z,26.55
2022-08-17T09:16:35.543Z,26.59
2022-08-17T09:17:35.477Z,26.60
2022-08-17T09:19:00.841Z,26.74
2022-08-17T09:19:35.330Z,26.74
2022-08-17T09:20:35.254Z,26.73
2022-08-17T09:21:35.191Z,26.74
2022-08-17T09:22:35.118Z,26.71
2022-08-17T09:23:35.043Z,26.80
2022-08-17T09:24:34.970Z,26.93
2022-08-17T09:25:34.893Z,26.89
2022-08-17T09:26:34.830Z,27.00
2022-08-17T09:27:34.751Z,27.03
2022-08-17T09:28:34.686Z,27.05
2022-08-17T09:29:34.614Z,27.18
2022-08-17T09:30:34.537Z,27.22
2022-08-17T09:31:34.482Z,27.33
2022-08-17T09:32:34.396Z,27.29
2022-08-17T09:33:34.317Z,27.37
2022-08-17T09:34:34.250Z,27.35
2022-08-17T09:35:36.914Z,27.40
2022-08-17T09:36:34.109Z,27.45
2022-08-17T09:37:34.033Z,27.58
2022-08-17T09:38:33.962Z,27.65
2022-08-17T09:39:33.937Z,27.71
2022-08-17T09:40:33.818Z,27.68
2022-08-17T09:41:33.745Z,27.70
2022-08-17T09:42:33.676Z,27.68
2022-08-17T09:43:33.608Z,27.71
2022-08-17T09:44:33.538Z,27.78
2022-08-17T09:45:33.465Z,27.78
2022-08-17T09:46:33.393Z,27.87
2022-08-17T09:47:33.318Z,28.01
2022-08-17T09:48:33.249Z,27.96
2022-08-17T09:49:33.180Z,28.01
2022-08-17T09:50:57.421Z,27.93
2022-08-17T09:51:33.030Z,28.00
2022-08-17T09:52:32.960Z,28.00
2022-08-17T09:53:32.892Z,28.12
2022-08-17T09:54:39.312Z,28.14
2022-08-17T09:55:32.751Z,28.15
2022-08-17T09:56:32.678Z,28.14
2022-08-17T09:57:32.776Z,28.15
2022-08-17T09:58:32.532Z,28.12
2022-08-17T09:59:38.255Z,28.17
2022-08-17T10:00:32.392Z,28.23
2022-08-17T10:01:32.404Z,28.29
2022-08-17T10:02:32.248Z,28.29
2022-08-17T10:03:32.175Z,28.41
2022-08-17T10:04:32.103Z,28.42
2022-08-17T10:05:32.032Z,28.41
2022-08-17T10:06:31.965Z,28.45
2022-08-17T10:07:31.898Z,28.48
2022-08-17T10:08:31.854Z,28.44
2022-08-17T10:09:31.753Z,28.57
2022-08-17T10:10:32.373Z,28.59
2022-08-17T10:11:33.732Z,28.56
2022-08-17T10:12:31.536Z,28.52
2022-08-17T10:13:31.488Z,28.64
2022-08-17T10:14:37.517Z,28.62
2022-08-17T10:15:31.326Z,28.66
2022-08-17T10:16:31.258Z,28.75
2022-08-17T10:17:31.185Z,28.67
2022-08-17T10:18:33.221Z,28.81
2022-08-17T10:19:31.041Z,28.88
2022-08-17T10:20:30.972Z,28.88
2022-08-17T10:21:30.902Z,28.94
2022-08-17T10:22:34.873Z,29.04
2022-08-17T10:23:30.760Z,29.04
2022-08-17T10:24:30.684Z,29.10
2022-08-17T10:25:49.100Z,29.14
2022-08-17T10:26:43.006Z,29.17
2022-08-17T10:27:30.475Z,29.29
2022-08-17T10:28:30.585Z,29.29
2022-08-17T10:29:30.333Z,29.26
2022-08-17T10:30:30.263Z,29.36
2022-08-17T10:31:34.816Z,29.39
2022-08-17T10:32:30.125Z,29.42
2022-08-17T10:33:30.051Z,29.54
2022-08-17T10:34:29.982Z,29.45
2022-08-17T10:35:29.908Z,29.59
2022-08-17T10:36:29.839Z,29.69
2022-08-17T10:37:29.765Z,29.71
2022-08-17T10:38:29.698Z,29.84
2022-08-17T10:39:29.665Z,29.94
2022-08-17T10:40:29.593Z,29.90
2022-08-17T10:41:29.485Z,30.00
2022-08-17T10:42:30.493Z,30.06
2022-08-17T10:43:29.350Z,30.08
2022-08-17T10:44:40.516Z,30.09
2022-08-17T10:45:29.207Z,30.16
2022-08-17T10:46:31.607Z,30.18
2022-08-17T10:47:29.064Z,30.28
2022-08-17T10:48:29.001Z,30.27
2022-08-17T10:49:28.929Z,30.31
2022-08-17T10:50:28.856Z,30.50
2022-08-17T10:51:28.783Z,30.55
2022-08-17T10:52:28.716Z,30.54
2022-08-17T10:53:28.648Z,30.51
2022-08-17T10:54:28.579Z,30.55
2022-08-17T10:55:28.510Z,30.61
2022-08-17T10:56:28.436Z,30.73
2022-08-17T10:57:28.370Z,30.80
2022-08-17T10:58:28.297Z,30.85
2022-08-17T10:59:28.231Z,30.99
2022-08-17T11:00:28.161Z,30.87
2022-08-17T11:01:28.121Z,30.88
2022-08-17T11:02:28.018Z,31.00
2022-08-17T11:03:27.945Z,30.94
2022-08-17T11:04:27.877Z,31.10
2022-08-17T11:05:27.805Z,31.06
2022-08-17T11:06:27.738Z,31.22
2022-08-17T11:07:27.680Z,31.25
2022-08-17T11:08:27.608Z,31.22
2022-08-17T11:09:27.533Z,31.33
2022-08-17T11:10:27.460Z,31.36
2022-08-17T11:11:27.389Z,31.28
2022-08-17T11:12:27.327Z,31.31
2022-08-17T11:13:27.258Z,31.28
2022-08-17T11:14:27.182Z,31.29
2022-08-17T11:15:27.112Z,31.34
2022-08-17T11:16:27.050Z,31.47
2022-08-17T11:17:26.975Z,31.40
2022-08-17T11:18:26.903Z,31.49
2022-08-17T11:19:26.841Z,31.51
2022-08-17T11:20:26.768Z,31.56
2022-08-17T11:21:26.696Z,31.54
2022-08-17T11:22:31.270Z,31.70
2022-08-17T11:23:26.563Z,31.61
2022-08-17T11:24:26.491Z,31.80
2022-08-17T11:25:26.424Z,31.78
2022-08-17T11:26:26.444Z,31.77
2022-08-17T11:27:26.290Z,31.89
2022-08-17T11:28:26.218Z,31.76
2022-08-17T11:29:26.150Z,31.87
2022-08-17T11:30:26.791Z,31.81
2022-08-17T11:31:38.662Z,31.93
2022-08-17T11:32:25.939Z,31.90
2022-08-17T11:33:25.870Z,31.85
2022-08-17T11:34:25.796Z,31.92
2022-08-17T11:35:25.728Z,32.00
2022-08-17T11:36:25.665Z,32.12
2022-08-17T11:37:25.594Z,32.15
2022-08-17T11:38:25.525Z,32.29
2022-08-17T11:39:25.559Z,32.40
2022-08-17T11:40:25.386Z,32.51
2022-08-17T11:41:25.317Z,32.51
2022-08-17T11:42:25.247Z,32.64
2022-08-17T11:43:25.594Z,32.71
2022-08-17T11:44:25.113Z,32.75
2022-08-17T11:45:32.252Z,32.83
2022-08-17T11:46:24.974Z,32.82
2022-08-17T11:47:24.904Z,32.83
2022-08-17T11:48:28.322Z,32.78
2022-08-17T11:49:24.767Z,32.92
2022-08-17T11:50:27.832Z,32.95
2022-08-17T11:51:24.633Z,32.95
2022-08-17T11:52:24.567Z,33.07
2022-08-17T11:53:24.497Z,33.08
2022-08-17T11:54:33.193Z,33.08
2022-08-17T11:55:35.400Z,33.23
2022-08-17T11:56:24.292Z,33.22
2022-08-17T11:57:24.221Z,33.43
2022-08-17T11:58:24.149Z,33.52
2022-08-17T11:59:24.089Z,33.57
2022-08-17T12:00:24.021Z,33.61
2022-08-17T12:01:23.949Z,33.68
2022-08-17T12:02:23.885Z,33.65
2022-08-17T12:03:23.875Z,33.74
2022-08-17T12:04:23.757Z,33.80
2022-08-17T12:05:23.678Z,33.81
2022-08-17T12:06:23.605Z,33.95
2022-08-17T12:07:23.536Z,34.06
2022-08-17T12:08:23.469Z,34.08
2022-08-17T12:09:23.404Z,34.20
2022-08-17T12:10:23.334Z,34.24
2022-08-17T12:11:58.731Z,34.29
2022-08-17T12:12:23.204Z,34.33
2022-08-17T12:13:23.130Z,34.40
2022-08-17T12:14:35.728Z,34.51
2022-08-17T12:15:22.998Z,34.61
2022-08-17T12:16:22.929Z,34.60
2022-08-17T12:17:39.713Z,34.75
2022-08-17T12:18:22.795Z,34.71
2022-08-17T12:19:22.726Z,34.89
2022-08-17T12:20:22.658Z,34.99
2022-08-17T12:21:22.593Z,35.08
2022-08-17T12:22:22.533Z,35.14
2022-08-17T12:23:22.466Z,35.26
2022-08-17T12:24:22.388Z,35.27
2022-08-17T12:25:22.323Z,35.37
2022-08-17T12:26:22.257Z,35.36
2022-08-17T12:27:46.253Z,35.55
2022-08-17T12:28:22.797Z,35.66
2022-08-17T12:29:35.587Z,35.61
2022-08-17T12:30:21.990Z,35.71
2022-08-17T12:31:21.957Z,36.01
2022-08-17T12:32:21.853Z,36.14
2022-08-17T12:33:25.211Z,36.39
2022-08-17T12:34:21.714Z,36.64
2022-08-17T12:35:21.648Z,37.01
2022-08-17T12:36:21.581Z,37.51
2022-08-17T12:37:21.517Z,38.12
2022-08-17T12:38:32.129Z,38.68
2022-08-17T12:39:21.607Z,39.33
2022-08-17T12:40:21.316Z,39.80
2022-08-17T12:41:21.250Z,40.38
2022-08-17T12:42:21.185Z,40.95
2022-08-17T12:43:21.116Z,41.53
2022-08-17T12:44:21.052Z,42.10
2022-08-17T12:45:20.986Z,42.70
2022-08-17T12:46:20.922Z,43.23
2022-08-17T12:47:22.564Z,43.87
2022-08-17T12:48:20.795Z,44.30
2022-08-17T12:49:20.726Z,44.69
2022-08-17T12:50:28.188Z,45.41
2022-08-17T12:51:20.598Z,45.99
2022-08-17T12:52:20.537Z,46.34
2022-08-17T12:53:20.479Z,46.76
2022-08-17T12:54:20.409Z,46.85
2022-08-17T12:55:20.349Z,47.10
2022-08-17T12:56:20.286Z,47.37
2022-08-17T12:57:20.226Z,47.23
2022-08-17T12:58:20.170Z,46.45
2022-08-17T12:59:30.418Z,46.03
2022-08-17T13:00:20.046Z,46.31
2022-08-17T13:01:20.024Z,46.74
2022-08-17T13:02:19.924Z,47.06
2022-08-17T13:03:19.862Z,47.53
2022-08-17T13:04:19.809Z,47.80
2022-08-17T13:05:19.750Z,48.26
2022-08-17T13:06:19.680Z,48.75
2022-08-17T13:07:19.631Z,49.37
2022-08-17T13:08:19.563Z,49.74
2022-08-17T13:09:19.511Z,50.07
2022-08-17T13:10:19.447Z,50.47
2022-08-17T13:11:19.389Z,50.91
2022-08-17T13:12:19.334Z,51.34
2022-08-17T13:13:19.291Z,51.63